sensor_id;sensor_type;location;lat;lon;timestamp;P1;durP1;ratioP1;P2;durP2;ratioP2
8694;SDS011;65580;49.446;6.854;2023-06-10T00:00:24;8.90;;;7.13;;
8694;SDS011;65580;49.446;6.854;2023-06-10T00:04:27;9.18;;;6.38;;
8694;SDS011;65580;49.446;6.854;2023-06-10T00:08:30;8.55;;;6.18;;
8694;SDS011;65580;49.446;6.854;2023-06-10T00:12:35;9.32;;;6.97;;
8694;SDS011;65580;49.446;6.854;2023-06-10T00:16:40;11.32;;;7.82;;
8694;SDS011;65580;49.446;6.854;2023-06-10T00:20:46;11.90;;;7.35;;
8694;SDS011;65580;49.446;6.854;2023-06-10T00:24:50;13.13;;;8.25;;
8694;SDS011;65580;49.446;6.854;2023-06-10T00:28:54;12.55;;;7.38;;
8694;SDS011;65580;49.446;6.854;2023-06-10T00:32:57;9.05;;;7.10;;
8694;SDS011;65580;49.446;6.854;2023-06-10T00:37:01;15.07;;;7.97;;
8694;SDS011;65580;49.446;6.854;2023-06-10T00:41:05;11.15;;;6.80;;
8694;SDS011;65580;49.446;6.854;2023-06-10T00:45:10;14.02;;;6.90;;
8694;SDS011;65580;49.446;6.854;2023-06-10T00:49:13;12.32;;;6.97;;
8694;SDS011;65580;49.446;6.854;2023-06-10T00:53:16;13.23;;;7.57;;
8694;SDS011;65580;49.446;6.854;2023-06-10T00:57:20;12.32;;;7.32;;
8694;SDS011;65580;49.446;6.854;2023-06-10T01:01:24;10.60;;;6.75;;
8694;SDS011;65580;49.446;6.854;2023-06-10T01:05:28;13.05;;;7.68;;
8694;SDS011;65580;49.446;6.854;2023-06-10T01:09:31;11.02;;;7.85;;
8694;SDS011;65580;49.446;6.854;2023-06-10T01:13:35;16.58;;;8.93;;
8694;SDS011;65580;49.446;6.854;2023-06-10T01:22:01;13.45;;;8.90;;
8694;SDS011;65580;49.446;6.854;2023-06-10T01:26:04;10.93;;;6.72;;
8694;SDS011;65580;49.446;6.854;2023-06-10T01:30:11;11.82;;;8.40;;
8694;SDS011;65580;49.446;6.854;2023-06-10T01:34:18;13.32;;;9.75;;
8694;SDS011;65580;49.446;6.854;2023-06-10T01:38:23;12.52;;;8.68;;
8694;SDS011;65580;49.446;6.854;2023-06-10T01:42:27;11.85;;;7.47;;
8694;SDS011;65580;49.446;6.854;2023-06-10T01:46:31;13.43;;;8.45;;
8694;SDS011;65580;49.446;6.854;2023-06-10T01:50:34;10.38;;;7.18;;
8694;SDS011;65580;49.446;6.854;2023-06-10T01:54:38;10.65;;;6.80;;
8694;SDS011;65580;49.446;6.854;2023-06-10T01:58:41;10.48;;;7.22;;
8694;SDS011;65580;49.446;6.854;2023-06-10T02:02:44;12.13;;;8.02;;
8694;SDS011;65580;49.446;6.854;2023-06-10T02:06:47;9.75;;;7.50;;
8694;SDS011;65580;49.446;6.854;2023-06-10T02:10:51;11.00;;;6.78;;
8694;SDS011;65580;49.446;6.854;2023-06-10T02:14:54;11.00;;;7.78;;
8694;SDS011;65580;49.446;6.854;2023-06-10T02:18:57;11.35;;;7.78;;
8694;SDS011;65580;49.446;6.854;2023-06-10T02:23:02;14.75;;;7.65;;
8694;SDS011;65580;49.446;6.854;2023-06-10T02:27:06;9.93;;;7.85;;
8694;SDS011;65580;49.446;6.854;2023-06-10T02:31:09;11.98;;;8.43;;
8694;SDS011;65580;49.446;6.854;2023-06-10T02:35:12;11.95;;;8.43;;
8694;SDS011;65580;49.446;6.854;2023-06-10T02:39:15;17.63;;;8.00;;
8694;SDS011;65580;49.446;6.854;2023-06-10T02:43:19;13.10;;;7.88;;
8694;SDS011;65580;49.446;6.854;2023-06-10T02:47:22;17.02;;;8.48;;
8694;SDS011;65580;49.446;6.854;2023-06-10T02:51:25;11.02;;;8.15;;
8694;SDS011;65580;49.446;6.854;2023-06-10T02:55:28;15.07;;;8.95;;
8694;SDS011;65580;49.446;6.854;2023-06-10T02:59:33;11.75;;;8.68;;
8694;SDS011;65580;49.446;6.854;2023-06-10T03:03:36;9.25;;;7.22;;
8694;SDS011;65580;49.446;6.854;2023-06-10T03:07:43;12.60;;;9.93;;
8694;SDS011;65580;49.446;6.854;2023-06-10T03:11:48;14.55;;;7.57;;
8694;SDS011;65580;49.446;6.854;2023-06-10T03:15:53;13.48;;;8.32;;
8694;SDS011;65580;49.446;6.854;2023-06-10T03:19:56;12.88;;;8.20;;
8694;SDS011;65580;49.446;6.854;2023-06-10T03:23:59;13.30;;;8.93;;
8694;SDS011;65580;49.446;6.854;2023-06-10T03:28:03;9.18;;;7.97;;
8694;SDS011;65580;49.446;6.854;2023-06-10T03:32:08;11.73;;;8.68;;
8694;SDS011;65580;49.446;6.854;2023-06-10T03:36:11;15.60;;;8.68;;
8694;SDS011;65580;49.446;6.854;2023-06-10T03:40:14;10.25;;;7.70;;
8694;SDS011;65580;49.446;6.854;2023-06-10T03:44:17;13.73;;;10.02;;
8694;SDS011;65580;49.446;6.854;2023-06-10T03:48:22;13.55;;;8.60;;
8694;SDS011;65580;49.446;6.854;2023-06-10T03:52:25;10.27;;;8.07;;
8694;SDS011;65580;49.446;6.854;2023-06-10T03:56:28;12.18;;;8.10;;
8694;SDS011;65580;49.446;6.854;2023-06-10T04:00:31;10.35;;;8.15;;
8694;SDS011;65580;49.446;6.854;2023-06-10T04:04:44;11.55;;;8.15;;
8694;SDS011;65580;49.446;6.854;2023-06-10T04:08:47;10.77;;;7.60;;
8694;SDS011;65580;49.446;6.854;2023-06-10T04:12:50;13.60;;;9.30;;
8694;SDS011;65580;49.446;6.854;2023-06-10T04:16:53;11.98;;;8.10;;
8694;SDS011;65580;49.446;6.854;2023-06-10T04:20:58;12.40;;;9.70;;
8694;SDS011;65580;49.446;6.854;2023-06-10T04:25:01;13.05;;;9.90;;
8694;SDS011;65580;49.446;6.854;2023-06-10T04:29:04;11.52;;;9.27;;
8694;SDS011;65580;49.446;6.854;2023-06-10T04:33:07;13.77;;;9.70;;
8694;SDS011;65580;49.446;6.854;2023-06-10T04:37:12;9.63;;;8.15;;
8694;SDS011;65580;49.446;6.854;2023-06-10T04:41:15;12.63;;;9.98;;
8694;SDS011;65580;49.446;6.854;2023-06-10T04:45:18;15.45;;;9.38;;
8694;SDS011;65580;49.446;6.854;2023-06-10T04:49:20;11.80;;;8.57;;
8694;SDS011;65580;49.446;6.854;2023-06-10T04:53:25;15.07;;;11.02;;
8694;SDS011;65580;49.446;6.854;2023-06-10T04:57:30;12.20;;;8.35;;
8694;SDS011;65580;49.446;6.854;2023-06-10T05:01:33;13.30;;;10.30;;
8694;SDS011;65580;49.446;6.854;2023-06-10T05:05:35;11.75;;;8.48;;
8694;SDS011;65580;49.446;6.854;2023-06-10T05:09:40;11.02;;;8.75;;
8694;SDS011;65580;49.446;6.854;2023-06-10T05:13:43;10.25;;;8.90;;
8694;SDS011;65580;49.446;6.854;2023-06-10T05:17:45;11.82;;;8.93;;
8694;SDS011;65580;49.446;6.854;2023-06-10T05:21:48;12.90;;;9.07;;
8694;SDS011;65580;49.446;6.854;2023-06-10T05:25:53;9.57;;;8.15;;
8694;SDS011;65580;49.446;6.854;2023-06-10T05:29:56;13.00;;;7.60;;
8694;SDS011;65580;49.446;6.854;2023-06-10T05:33:58;8.80;;;7.15;;
8694;SDS011;65580;49.446;6.854;2023-06-10T05:38:02;10.02;;;7.28;;
8694;SDS011;65580;49.446;6.854;2023-06-10T05:42:07;9.90;;;7.13;;
8694;SDS011;65580;49.446;6.854;2023-06-10T05:46:11;8.38;;;5.80;;
8694;SDS011;65580;49.446;6.854;2023-06-10T05:50:15;7.60;;;5.78;;
8694;SDS011;65580;49.446;6.854;2023-06-10T05:54:18;8.13;;;5.82;;
8694;SDS011;65580;49.446;6.854;2023-06-10T05:58:22;8.25;;;5.63;;
8694;SDS011;65580;49.446;6.854;2023-06-10T06:02:26;7.90;;;5.68;;
8694;SDS011;65580;49.446;6.854;2023-06-10T06:06:29;8.40;;;5.72;;
8694;SDS011;65580;49.446;6.854;2023-06-10T06:10:32;15.50;;;5.55;;
8694;SDS011;65580;49.446;6.854;2023-06-10T06:14:38;8.88;;;5.32;;
8694;SDS011;65580;49.446;6.854;2023-06-10T06:18:41;6.18;;;4.80;;
8694;SDS011;65580;49.446;6.854;2023-06-10T06:22:44;8.15;;;4.70;;
8694;SDS011;65580;49.446;6.854;2023-06-10T06:26:47;6.93;;;4.65;;
8694;SDS011;65580;49.446;6.854;2023-06-10T06:30:51;8.40;;;4.65;;
8694;SDS011;65580;49.446;6.854;2023-06-10T06:34:54;7.30;;;4.50;;
8694;SDS011;65580;49.446;6.854;2023-06-10T06:38:57;6.25;;;4.10;;
8694;SDS011;65580;49.446;6.854;2023-06-10T06:43:01;6.90;;;4.55;;
8694;SDS011;65580;49.446;6.854;2023-06-10T06:47:06;8.45;;;3.97;;
8694;SDS011;65580;49.446;6.854;2023-06-10T06:51:09;5.25;;;4.22;;
8694;SDS011;65580;49.446;6.854;2023-06-10T06:55:12;4.93;;;4.00;;
8694;SDS011;65580;49.446;6.854;2023-06-10T06:59:15;5.43;;;4.30;;
8694;SDS011;65580;49.446;6.854;2023-06-10T07:03:22;6.53;;;4.10;;
8694;SDS011;65580;49.446;6.854;2023-06-10T07:07:25;6.78;;;4.05;;
8694;SDS011;65580;49.446;6.854;2023-06-10T07:11:27;4.63;;;3.50;;
8694;SDS011;65580;49.446;6.854;2023-06-10T07:15:30;5.05;;;3.78;;
8694;SDS011;65580;49.446;6.854;2023-06-10T07:19:35;8.60;;;4.20;;
8694;SDS011;65580;49.446;6.854;2023-06-10T07:23:41;5.88;;;4.07;;
8694;SDS011;65580;49.446;6.854;2023-06-10T07:27:44;5.15;;;3.83;;
8694;SDS011;65580;49.446;6.854;2023-06-10T07:31:47;4.78;;;3.60;;
8694;SDS011;65580;49.446;6.854;2023-06-10T07:35:51;7.88;;;3.95;;
8694;SDS011;65580;49.446;6.854;2023-06-10T07:39:54;6.03;;;4.20;;
8694;SDS011;65580;49.446;6.854;2023-06-10T07:43:57;4.80;;;3.75;;
8694;SDS011;65580;49.446;6.854;2023-06-10T07:48:00;7.07;;;3.80;;
8694;SDS011;65580;49.446;6.854;2023-06-10T07:52:06;5.53;;;3.70;;
8694;SDS011;65580;49.446;6.854;2023-06-10T07:56:10;7.82;;;3.63;;
8694;SDS011;65580;49.446;6.854;2023-06-10T08:00:13;8.15;;;3.50;;
8694;SDS011;65580;49.446;6.854;2023-06-10T08:04:16;3.75;;;2.92;;
8694;SDS011;65580;49.446;6.854;2023-06-10T08:08:22;5.50;;;3.78;;
8694;SDS011;65580;49.446;6.854;2023-06-10T08:12:25;4.22;;;3.17;;
8694;SDS011;65580;49.446;6.854;2023-06-10T08:16:28;6.45;;;3.60;;
8694;SDS011;65580;49.446;6.854;2023-06-10T08:20:31;5.68;;;3.55;;
8694;SDS011;65580;49.446;6.854;2023-06-10T08:24:37;5.65;;;3.53;;
8694;SDS011;65580;49.446;6.854;2023-06-10T08:28:39;4.75;;;3.30;;
8694;SDS011;65580;49.446;6.854;2023-06-10T08:32:42;4.07;;;3.20;;
8694;SDS011;65580;49.446;6.854;2023-06-10T08:36:45;6.65;;;3.70;;
8694;SDS011;65580;49.446;6.854;2023-06-10T08:40:50;5.53;;;3.72;;
8694;SDS011;65580;49.446;6.854;2023-06-10T08:44:57;6.97;;;3.75;;
8694;SDS011;65580;49.446;6.854;2023-06-10T08:49:05;5.85;;;3.70;;
8694;SDS011;65580;49.446;6.854;2023-06-10T08:53:09;5.32;;;3.63;;
8694;SDS011;65580;49.446;6.854;2023-06-10T08:57:18;6.53;;;3.97;;
8694;SDS011;65580;49.446;6.854;2023-06-10T09:01:23;7.63;;;4.18;;
8694;SDS011;65580;49.446;6.854;2023-06-10T09:05:26;8.70;;;3.80;;
8694;SDS011;65580;49.446;6.854;2023-06-10T09:09:30;7.18;;;3.97;;
8694;SDS011;65580;49.446;6.854;2023-06-10T09:13:35;4.97;;;3.55;;
8694;SDS011;65580;49.446;6.854;2023-06-10T09:17:38;4.57;;;3.75;;
8694;SDS011;65580;49.446;6.854;2023-06-10T09:21:41;5.18;;;3.70;;
8694;SDS011;65580;49.446;6.854;2023-06-10T09:25:44;6.50;;;3.70;;
8694;SDS011;65580;49.446;6.854;2023-06-10T09:29:50;8.32;;;3.58;;
8694;SDS011;65580;49.446;6.854;2023-06-10T09:33:56;6.25;;;4.10;;
8694;SDS011;65580;49.446;6.854;2023-06-10T09:38:07;5.43;;;3.88;;
8694;SDS011;65580;49.446;6.854;2023-06-10T09:42:15;7.00;;;3.70;;
8694;SDS011;65580;49.446;6.854;2023-06-10T09:46:21;5.10;;;3.50;;
8694;SDS011;65580;49.446;6.854;2023-06-10T09:50:24;5.47;;;3.65;;
8694;SDS011;65580;49.446;6.854;2023-06-10T09:54:30;3.55;;;3.20;;
8694;SDS011;65580;49.446;6.854;2023-06-10T09:58:35;6.05;;;3.50;;
8694;SDS011;65580;49.446;6.854;2023-06-10T10:02:45;4.15;;;3.45;;
8694;SDS011;65580;49.446;6.854;2023-06-10T10:06:49;6.70;;;3.55;;
8694;SDS011;65580;49.446;6.854;2023-06-10T10:10:52;5.40;;;3.17;;
8694;SDS011;65580;49.446;6.854;2023-06-10T10:14:55;14.25;;;3.55;;
8694;SDS011;65580;49.446;6.854;2023-06-10T10:19:01;4.45;;;2.95;;
8694;SDS011;65580;49.446;6.854;2023-06-10T10:23:07;6.28;;;3.28;;
8694;SDS011;65580;49.446;6.854;2023-06-10T10:27:11;4.85;;;3.35;;
8694;SDS011;65580;49.446;6.854;2023-06-10T10:35:23;4.63;;;3.00;;
8694;SDS011;65580;49.446;6.854;2023-06-10T10:39:26;5.43;;;3.47;;
8694;SDS011;65580;49.446;6.854;2023-06-10T10:43:29;6.30;;;2.85;;
8694;SDS011;65580;49.446;6.854;2023-06-10T10:47:33;6.97;;;3.22;;
8694;SDS011;65580;49.446;6.854;2023-06-10T10:51:39;7.28;;;3.03;;
8694;SDS011;65580;49.446;6.854;2023-06-10T10:55:59;4.57;;;3.13;;
8694;SDS011;65580;49.446;6.854;2023-06-10T11:00:03;5.57;;;3.05;;
8694;SDS011;65580;49.446;6.854;2023-06-10T11:04:06;3.95;;;3.05;;
8694;SDS011;65580;49.446;6.854;2023-06-10T11:08:11;6.50;;;3.28;;
8694;SDS011;65580;49.446;6.854;2023-06-10T11:12:14;4.13;;;3.20;;
8694;SDS011;65580;49.446;6.854;2023-06-10T11:16:25;3.60;;;3.13;;
8694;SDS011;65580;49.446;6.854;2023-06-10T11:20:41;4.65;;;2.92;;
8694;SDS011;65580;49.446;6.854;2023-06-10T11:24:50;6.38;;;2.83;;
8694;SDS011;65580;49.446;6.854;2023-06-10T11:29:03;4.45;;;2.83;;
8694;SDS011;65580;49.446;6.854;2023-06-10T11:33:14;4.95;;;3.03;;
8694;SDS011;65580;49.446;6.854;2023-06-10T11:37:17;3.53;;;3.05;;
8694;SDS011;65580;49.446;6.854;2023-06-10T11:41:22;3.17;;;2.60;;
8694;SDS011;65580;49.446;6.854;2023-06-10T11:45:26;6.55;;;2.90;;
8694;SDS011;65580;49.446;6.854;2023-06-10T11:49:29;4.35;;;3.00;;
8694;SDS011;65580;49.446;6.854;2023-06-10T11:53:32;5.40;;;2.95;;
8694;SDS011;65580;49.446;6.854;2023-06-10T11:57:36;5.55;;;3.00;;
8694;SDS011;65580;49.446;6.854;2023-06-10T12:01:42;5.03;;;2.88;;
8694;SDS011;65580;49.446;6.854;2023-06-10T12:05:55;3.25;;;2.40;;
8694;SDS011;65580;49.446;6.854;2023-06-10T12:09:59;4.82;;;2.60;;
8694;SDS011;65580;49.446;6.854;2023-06-10T12:19:00;4.70;;;2.80;;
8694;SDS011;65580;49.446;6.854;2023-06-10T12:23:08;5.18;;;2.75;;
8694;SDS011;65580;49.446;6.854;2023-06-10T12:27:12;3.60;;;2.88;;
8694;SDS011;65580;49.446;6.854;2023-06-10T12:31:19;7.10;;;3.15;;
8694;SDS011;65580;49.446;6.854;2023-06-10T12:35:23;5.90;;;2.80;;
8694;SDS011;65580;49.446;6.854;2023-06-10T12:39:27;5.72;;;2.80;;
8694;SDS011;65580;49.446;6.854;2023-06-10T12:43:30;4.70;;;2.78;;
8694;SDS011;65580;49.446;6.854;2023-06-10T12:47:36;5.00;;;2.85;;
8694;SDS011;65580;49.446;6.854;2023-06-10T12:51:40;3.90;;;3.10;;
8694;SDS011;65580;49.446;6.854;2023-06-10T12:55:43;7.25;;;3.17;;
8694;SDS011;65580;49.446;6.854;2023-06-10T12:59:46;6.05;;;2.70;;
8694;SDS011;65580;49.446;6.854;2023-06-10T13:03:55;3.95;;;2.75;;
8694;SDS011;65580;49.446;6.854;2023-06-10T13:07:57;3.70;;;2.95;;
8694;SDS011;65580;49.446;6.854;2023-06-10T13:12:00;5.63;;;3.22;;
8694;SDS011;65580;49.446;6.854;2023-06-10T13:16:03;7.00;;;3.25;;
8694;SDS011;65580;49.446;6.854;2023-06-10T13:20:08;4.57;;;3.30;;
8694;SDS011;65580;49.446;6.854;2023-06-10T13:24:12;6.70;;;3.22;;
8694;SDS011;65580;49.446;6.854;2023-06-10T13:28:14;7.05;;;3.20;;
8694;SDS011;65580;49.446;6.854;2023-06-10T13:32:17;4.63;;;2.70;;
8694;SDS011;65580;49.446;6.854;2023-06-10T13:36:22;5.28;;;3.10;;
8694;SDS011;65580;49.446;6.854;2023-06-10T13:40:24;4.88;;;3.00;;
8694;SDS011;65580;49.446;6.854;2023-06-10T13:44:27;4.68;;;3.20;;
8694;SDS011;65580;49.446;6.854;2023-06-10T13:48:32;4.00;;;3.08;;
8694;SDS011;65580;49.446;6.854;2023-06-10T13:52:36;8.02;;;2.95;;
8694;SDS011;65580;49.446;6.854;2023-06-10T13:56:39;3.70;;;3.00;;
8694;SDS011;65580;49.446;6.854;2023-06-10T14:00:41;3.70;;;3.00;;
8694;SDS011;65580;49.446;6.854;2023-06-10T14:04:44;5.22;;;3.42;;
8694;SDS011;65580;49.446;6.854;2023-06-10T14:08:49;7.00;;;3.00;;
8694;SDS011;65580;49.446;6.854;2023-06-10T14:12:52;5.60;;;3.20;;
8694;SDS011;65580;49.446;6.854;2023-06-10T14:16:55;4.40;;;3.50;;
8694;SDS011;65580;49.446;6.854;2023-06-10T14:20:58;6.00;;;3.67;;
8694;SDS011;65580;49.446;6.854;2023-06-10T14:25:02;5.80;;;3.70;;
8694;SDS011;65580;49.446;6.854;2023-06-10T14:29:05;5.38;;;3.30;;
8694;SDS011;65580;49.446;6.854;2023-06-10T14:33:10;7.15;;;3.65;;
8694;SDS011;65580;49.446;6.854;2023-06-10T14:37:12;4.65;;;3.50;;
8694;SDS011;65580;49.446;6.854;2023-06-10T14:41:17;9.35;;;3.65;;
8694;SDS011;65580;49.446;6.854;2023-06-10T14:45:19;4.47;;;3.47;;
8694;SDS011;65580;49.446;6.854;2023-06-10T14:49:22;5.20;;;3.50;;
8694;SDS011;65580;49.446;6.854;2023-06-10T14:53:25;5.00;;;3.58;;
8694;SDS011;65580;49.446;6.854;2023-06-10T14:57:29;4.95;;;3.60;;
8694;SDS011;65580;49.446;6.854;2023-06-10T15:01:35;5.63;;;4.03;;
8694;SDS011;65580;49.446;6.854;2023-06-10T15:05:38;5.20;;;3.78;;
8694;SDS011;65580;49.446;6.854;2023-06-10T15:09:41;5.32;;;3.67;;
8694;SDS011;65580;49.446;6.854;2023-06-10T15:13:45;6.13;;;3.72;;
8694;SDS011;65580;49.446;6.854;2023-06-10T15:17:48;7.03;;;3.85;;
8694;SDS011;65580;49.446;6.854;2023-06-10T15:21:50;6.40;;;3.92;;
8694;SDS011;65580;49.446;6.854;2023-06-10T15:25:53;4.07;;;3.33;;
8694;SDS011;65580;49.446;6.854;2023-06-10T15:29:57;6.10;;;3.53;;
8694;SDS011;65580;49.446;6.854;2023-06-10T15:34:00;4.00;;;3.50;;
8694;SDS011;65580;49.446;6.854;2023-06-10T15:38:03;5.57;;;3.40;;
8694;SDS011;65580;49.446;6.854;2023-06-10T15:42:06;12.50;;;3.88;;
8694;SDS011;65580;49.446;6.854;2023-06-10T15:46:10;5.13;;;3.53;;
8694;SDS011;65580;49.446;6.854;2023-06-10T15:50:13;5.30;;;3.80;;
8694;SDS011;65580;49.446;6.854;2023-06-10T15:54:16;5.15;;;3.97;;
8694;SDS011;65580;49.446;6.854;2023-06-10T15:58:19;5.50;;;3.53;;
8694;SDS011;65580;49.446;6.854;2023-06-10T16:02:24;5.32;;;3.60;;
8694;SDS011;65580;49.446;6.854;2023-06-10T16:06:27;7.38;;;3.67;;
8694;SDS011;65580;49.446;6.854;2023-06-10T16:10:30;7.85;;;3.72;;
8694;SDS011;65580;49.446;6.854;2023-06-10T16:14:34;4.47;;;3.45;;
8694;SDS011;65580;49.446;6.854;2023-06-10T16:20:05;4.68;;;3.42;;
8694;SDS011;65580;49.446;6.854;2023-06-10T16:24:09;4.55;;;3.08;;
8694;SDS011;65580;49.446;6.854;2023-06-10T16:28:13;4.18;;;3.10;;
8694;SDS011;65580;49.446;6.854;2023-06-10T16:32:16;5.85;;;3.13;;
8694;SDS011;65580;49.446;6.854;2023-06-10T16:36:21;5.18;;;3.40;;
8694;SDS011;65580;49.446;6.854;2023-06-10T16:40:24;5.93;;;3.50;;
8694;SDS011;65580;49.446;6.854;2023-06-10T16:44:27;4.05;;;3.35;;
8694;SDS011;65580;49.446;6.854;2023-06-10T16:48:30;4.80;;;3.20;;
8694;SDS011;65580;49.446;6.854;2023-06-10T16:52:37;4.63;;;3.17;;
8694;SDS011;65580;49.446;6.854;2023-06-10T16:56:40;6.30;;;3.20;;
8694;SDS011;65580;49.446;6.854;2023-06-10T17:00:43;4.85;;;3.20;;
8694;SDS011;65580;49.446;6.854;2023-06-10T17:04:47;4.38;;;3.10;;
8694;SDS011;65580;49.446;6.854;2023-06-10T17:08:51;6.82;;;2.95;;
8694;SDS011;65580;49.446;6.854;2023-06-10T17:12:54;5.90;;;2.95;;
8694;SDS011;65580;49.446;6.854;2023-06-10T17:16:57;7.57;;;3.22;;
8694;SDS011;65580;49.446;6.854;2023-06-10T17:21:01;4.97;;;2.78;;
8694;SDS011;65580;49.446;6.854;2023-06-10T17:25:05;4.13;;;2.95;;
8694;SDS011;65580;49.446;6.854;2023-06-10T17:29:10;3.30;;;2.70;;
8694;SDS011;65580;49.446;6.854;2023-06-10T17:33:13;4.10;;;3.03;;
8694;SDS011;65580;49.446;6.854;2023-06-10T17:37:16;3.30;;;2.88;;
8694;SDS011;65580;49.446;6.854;2023-06-10T17:41:20;3.92;;;2.72;;
8694;SDS011;65580;49.446;6.854;2023-06-10T17:45:22;3.92;;;2.90;;
8694;SDS011;65580;49.446;6.854;2023-06-10T17:49:26;3.78;;;3.00;;
8694;SDS011;65580;49.446;6.854;2023-06-10T17:53:33;6.53;;;3.30;;
8694;SDS011;65580;49.446;6.854;2023-06-10T17:57:37;5.30;;;3.10;;
8694;SDS011;65580;49.446;6.854;2023-06-10T18:01:41;4.28;;;2.75;;
8694;SDS011;65580;49.446;6.854;2023-06-10T18:05:44;4.93;;;3.13;;
8694;SDS011;65580;49.446;6.854;2023-06-10T18:09:47;6.40;;;3.15;;
8694;SDS011;65580;49.446;6.854;2023-06-10T18:13:51;5.70;;;3.03;;
8694;SDS011;65580;49.446;6.854;2023-06-10T18:17:54;4.05;;;2.75;;
8694;SDS011;65580;49.446;6.854;2023-06-10T18:21:58;4.45;;;3.03;;
8694;SDS011;65580;49.446;6.854;2023-06-10T18:26:01;4.18;;;3.00;;
8694;SDS011;65580;49.446;6.854;2023-06-10T18:30:07;3.88;;;2.90;;
8694;SDS011;65580;49.446;6.854;2023-06-10T18:34:11;3.28;;;2.97;;
8694;SDS011;65580;49.446;6.854;2023-06-10T18:38:14;7.25;;;3.22;;
8694;SDS011;65580;49.446;6.854;2023-06-10T18:42:17;8.27;;;3.33;;
8694;SDS011;65580;49.446;6.854;2023-06-10T18:46:21;9.20;;;3.30;;
8694;SDS011;65580;49.446;6.854;2023-06-10T18:50:26;5.22;;;3.40;;
8694;SDS011;65580;49.446;6.854;2023-06-10T18:54:29;7.18;;;3.25;;
8694;SDS011;65580;49.446;6.854;2023-06-10T19:02:37;4.20;;;3.05;;
8694;SDS011;65580;49.446;6.854;2023-06-10T19:06:41;6.95;;;3.40;;
8694;SDS011;65580;49.446;6.854;2023-06-10T19:10:44;6.15;;;3.67;;
8694;SDS011;65580;49.446;6.854;2023-06-10T19:18:51;4.43;;;3.17;;
8694;SDS011;65580;49.446;6.854;2023-06-10T19:22:55;5.07;;;3.60;;
8694;SDS011;65580;49.446;6.854;2023-06-10T19:31:01;3.92;;;3.10;;
8694;SDS011;65580;49.446;6.854;2023-06-10T19:35:06;5.00;;;3.20;;
8694;SDS011;65580;49.446;6.854;2023-06-10T19:39:10;5.05;;;3.47;;
8694;SDS011;65580;49.446;6.854;2023-06-10T19:43:13;8.27;;;3.58;;
8694;SDS011;65580;49.446;6.854;2023-06-10T19:51:20;5.40;;;3.80;;
8694;SDS011;65580;49.446;6.854;2023-06-10T19:55:23;5.45;;;3.60;;
8694;SDS011;65580;49.446;6.854;2023-06-10T19:59:25;5.82;;;3.58;;
8694;SDS011;65580;49.446;6.854;2023-06-10T20:03:28;5.28;;;3.80;;
8694;SDS011;65580;49.446;6.854;2023-06-10T20:07:33;5.95;;;3.83;;
8694;SDS011;65580;49.446;6.854;2023-06-10T20:11:36;6.35;;;3.95;;
8694;SDS011;65580;49.446;6.854;2023-06-10T20:15:38;5.80;;;3.95;;
8694;SDS011;65580;49.446;6.854;2023-06-10T20:19:41;6.25;;;3.67;;
8694;SDS011;65580;49.446;6.854;2023-06-10T20:23:51;9.88;;;4.13;;
8694;SDS011;65580;49.446;6.854;2023-06-10T20:27:54;8.45;;;3.97;;
8694;SDS011;65580;49.446;6.854;2023-06-10T20:31:57;8.05;;;4.72;;
8694;SDS011;65580;49.446;6.854;2023-06-10T20:36:00;5.90;;;4.10;;
8694;SDS011;65580;49.446;6.854;2023-06-10T20:40:05;7.38;;;4.20;;
8694;SDS011;65580;49.446;6.854;2023-06-10T20:44:08;5.88;;;4.65;;
8694;SDS011;65580;49.446;6.854;2023-06-10T20:48:12;7.15;;;4.03;;
8694;SDS011;65580;49.446;6.854;2023-06-10T20:52:17;5.82;;;4.50;;
8694;SDS011;65580;49.446;6.854;2023-06-10T20:56:21;8.35;;;4.88;;
8694;SDS011;65580;49.446;6.854;2023-06-10T21:00:24;8.60;;;4.80;;
8694;SDS011;65580;49.446;6.854;2023-06-10T21:04:28;6.28;;;4.70;;
8694;SDS011;65580;49.446;6.854;2023-06-10T21:08:30;6.10;;;4.43;;
8694;SDS011;65580;49.446;6.854;2023-06-10T21:12:34;8.50;;;5.13;;
8694;SDS011;65580;49.446;6.854;2023-06-10T21:16:37;7.18;;;4.45;;
8694;SDS011;65580;49.446;6.854;2023-06-10T21:20:41;7.43;;;4.50;;
8694;SDS011;65580;49.446;6.854;2023-06-10T21:24:44;7.00;;;4.80;;
8694;SDS011;65580;49.446;6.854;2023-06-10T21:28:48;8.13;;;5.20;;
8694;SDS011;65580;49.446;6.854;2023-06-10T21:32:51;7.18;;;4.55;;
8694;SDS011;65580;49.446;6.854;2023-06-10T21:36:54;7.70;;;5.25;;
8694;SDS011;65580;49.446;6.854;2023-06-10T21:40:57;8.45;;;6.22;;
8694;SDS011;65580;49.446;6.854;2023-06-10T21:45:01;6.93;;;4.65;;
8694;SDS011;65580;49.446;6.854;2023-06-10T21:49:04;8.68;;;5.15;;
8694;SDS011;65580;49.446;6.854;2023-06-10T21:53:07;8.15;;;5.00;;
8694;SDS011;65580;49.446;6.854;2023-06-10T21:57:09;8.13;;;5.55;;
8694;SDS011;65580;49.446;6.854;2023-06-10T22:01:14;9.30;;;6.10;;
8694;SDS011;65580;49.446;6.854;2023-06-10T22:05:17;9.02;;;5.70;;
8694;SDS011;65580;49.446;6.854;2023-06-10T22:09:19;10.90;;;5.45;;
8694;SDS011;65580;49.446;6.854;2023-06-10T22:13:22;8.55;;;6.28;;
8694;SDS011;65580;49.446;6.854;2023-06-10T22:17:27;8.43;;;5.55;;
8694;SDS011;65580;49.446;6.854;2023-06-10T22:21:29;9.63;;;5.78;;
8694;SDS011;65580;49.446;6.854;2023-06-10T22:25:32;6.68;;;4.97;;
8694;SDS011;65580;49.446;6.854;2023-06-10T22:29:35;7.80;;;5.82;;
8694;SDS011;65580;49.446;6.854;2023-06-10T22:33:39;10.35;;;5.63;;
8694;SDS011;65580;49.446;6.854;2023-06-10T22:37:42;9.18;;;6.25;;
8694;SDS011;65580;49.446;6.854;2023-06-10T22:41:45;11.52;;;6.10;;
8694;SDS011;65580;49.446;6.854;2023-06-10T22:45:48;12.90;;;7.13;;
8694;SDS011;65580;49.446;6.854;2023-06-10T22:49:52;9.25;;;6.07;;
8694;SDS011;65580;49.446;6.854;2023-06-10T22:53:55;9.43;;;7.03;;
8694;SDS011;65580;49.446;6.854;2023-06-10T22:57:57;8.55;;;6.40;;
8694;SDS011;65580;49.446;6.854;2023-06-10T23:02:01;8.02;;;6.15;;
8694;SDS011;65580;49.446;6.854;2023-06-10T23:06:05;10.68;;;6.10;;
8694;SDS011;65580;49.446;6.854;2023-06-10T23:10:08;8.45;;;6.50;;
8694;SDS011;65580;49.446;6.854;2023-06-10T23:14:13;9.77;;;5.90;;
8694;SDS011;65580;49.446;6.854;2023-06-10T23:18:16;12.57;;;5.60;;
8694;SDS011;65580;49.446;6.854;2023-06-10T23:22:21;8.98;;;5.78;;
8694;SDS011;65580;49.446;6.854;2023-06-10T23:26:25;8.88;;;6.55;;
8694;SDS011;65580;49.446;6.854;2023-06-10T23:30:28;9.68;;;6.82;;
8694;SDS011;65580;49.446;6.854;2023-06-10T23:34:31;7.63;;;6.15;;
8694;SDS011;65580;49.446;6.854;2023-06-10T23:38:35;9.60;;;6.35;;
8694;SDS011;65580;49.446;6.854;2023-06-10T23:42:38;11.70;;;5.95;;
8694;SDS011;65580;49.446;6.854;2023-06-10T23:46:41;7.97;;;5.78;;
8694;SDS011;65580;49.446;6.854;2023-06-10T23:50:44;12.52;;;7.07;;
8694;SDS011;65580;49.446;6.854;2023-06-10T23:54:48;9.45;;;6.50;;
8694;SDS011;65580;49.446;6.854;2023-06-10T23:58:51;8.90;;;5.90;;
